Charter Quote
Worldwide +1-877-727-2538 Call
Select Language Lang
SAFETY RELIABILITY EXPERIENCE

Private Jet Charter Services - Simao Airport (ZPSM)

Paramount Business Jets offers private jet charter flights and luxury airliner charters to and from Simao Airport.

AIRPORT INFORMATION
ICAOZPSM
LOCATIONSimao, China
FACILITY TYPEAIRPORT

At Paramount Business Jets you can hire chartered private jets to and from Simao Airport with as little as 4 hours of notice. All flights booked via Paramount Business Jets are operated by certified direct air carriers that meet and exceed the FAA part 135 and 121 protocol or a foreign equivalent safety authority. Furthermore, Paramount Business Jets subscribes to ARGUS for their third party safety checks of operators, aircraft, and crews prior each and every flight to and from Simao Airport and worldwide.

  • Quote a trip using Simao Airport or call us 24/7 - 365 days a year at +1-877-727-2538.
Questions? Call +1-877-727-2538

METAR Weather Data at Simao Airport, ZPSM

STATIONZPSM
OBSERVEDWed Sep 24, 00:00 UTC
NOWTue Jul 16, 04:10 UTC
AGE42148:10 hr ago
WINDvaries at 2 mph
VISIBILITY16 miles
CLOUDSmostly cloudy
TEMP68°F (20°C)
DEWPT64°F (18°C)
HUMIDITY88%
BAROMETER1018 hPa (30.06 in Hg)
METARZPSM 240000Z VRB01MPS 9999 FEW013 SCT026 BKN040 20/18 Q1018 NOSIG

Call us on +1-877-727-2538 (24 Hours) to Hire a Private Jet or Get a Quick Quote.

Find Airports Near any Location

Processing
...